• Join FlightAware (Why Join?)
  • Login
  • US Flag 
10:45AM EDT


 

Airport Tracker/Info


-or-


 

Live Flight TrackerFlight Track Log ✈ SWA2236 ✈ 06-Jul-2013 ✈ KLAS - KJAX

Flight Track Log - Related Links

Times and Time Zones

All times are in EDT time to prevent confusion due to time zone crossing. See the SWA2236 flight status page for this flight to view local times or setup timezone preferences in your user account.

Time Position Orientation Groundspeed Altitude Reporting Facility
EDT Latitude Longitude Course Direction KTS MPH feet Rate Location/Type
03:51PM 32.3386 -88.0706 92° East  Level Estimated
03:52PM 32.3324 -88.0469 107° East  Level Estimated
03:53PM 32.3262 -88.0231 107° East  Level Estimated
03:54PM 32.3201 -87.9994 107° East  Level Estimated
03:55PM 32.3139 -87.9756 107° East  Level Estimated
03:56PM 32.3078 -87.9519 107° East  Level Estimated
03:57PM 32.3016 -87.9282 107° East  Level Estimated
03:58PM 32.2954 -87.9045 107° East  Level Estimated
03:59PM 32.2893 -87.8807 107° East  Level Estimated
04:00PM 32.2831 -87.8570 107° East  Level Estimated
04:01PM 32.2769 -87.8333 107° East  Level Estimated
04:02PM 32.2707 -87.8096 107° East  Level Estimated
04:03PM 32.2645 -87.7859 107° East  Level Estimated
04:04PM 32.2583 -87.7622 107° East  Level Estimated
04:05PM 32.2521 -87.7385 107° East  Level Estimated
04:06PM 32.2459 -87.7148 107° East  Level Estimated
04:07PM 32.2397 -87.6911 107° East  Level Estimated
04:08PM 32.2335 -87.6674 107° East  Level Estimated
04:09PM 32.2272 -87.6437 107° East  Level Estimated
04:10PM 32.2210 -87.6200 107° East  Level Estimated
04:11PM 32.2148 -87.5963 107° East  Level Estimated
04:12PM 32.2086 -87.5726 107° East  Level Estimated
04:13PM 32.2023 -87.5490 107° East  Level Estimated
04:14PM 32.1961 -87.5253 107° East  Level Estimated
04:15PM 32.1898 -87.5016 107° East  Level Estimated
04:16PM 32.1836 -87.4780 107° East  Level Estimated
04:17PM 32.1773 -87.4543 107° East  Level Estimated
04:18PM 32.1711 -87.4306 107° East  Level Estimated
04:19PM 32.1648 -87.4070 107° East  Level Estimated
04:20PM 32.1585 -87.3833 107° East  Level Estimated
04:21PM 32.1523 -87.3597 107° East  Level Estimated
04:22PM 32.1460 -87.3360 107° East  Level Estimated
04:23PM 32.1397 -87.3124 107° East  Level Estimated
04:24PM 32.1334 -87.2887 107° East  Level Estimated
04:25PM 32.1271 -87.2651 107° East  Level Estimated
04:26PM 32.1208 -87.2415 107° East  Level Estimated
04:27PM 32.1145 -87.2178 107° East  Level Estimated
04:28PM 32.1082 -87.1942 107° East  Level Estimated
04:29PM 32.1019 -87.1706 107° East  Level Estimated
04:30PM 32.0956 -87.1470 108° East  Level Estimated
04:31PM 32.0893 -87.1234 108° East  Level Estimated
04:32PM 32.0830 -87.0997 108° East  Level Estimated
04:33PM 32.0766 -87.0761 108° East  Level Estimated
04:34PM 32.0703 -87.0525 108° East  Level Estimated
04:35PM 32.0640 -87.0289 108° East  Level Estimated
04:36PM 32.0576 -87.0053 108° East  Level Estimated
04:37PM 32.0513 -86.9817 108° East  Level Estimated
04:38PM 32.0449 -86.9581 108° East  Level Estimated
04:39PM 32.0386 -86.9345 108° East  Level Estimated
04:40PM 32.0322 -86.9109 108° East  Level Estimated
04:41PM 32.0259 -86.8874 108° East  Level Estimated
04:42PM 32.0195 -86.8638 108° East  Level Estimated
04:43PM 32.0131 -86.8402 108° East  Level Estimated
04:44PM 32.0068 -86.8166 108° East  Level Estimated
04:45PM 32.0004 -86.7931 108° East  Level Estimated
04:46PM 31.9940 -86.7695 108° East  Level Estimated
04:47PM 31.9876 -86.7459 108° East  Level Estimated
04:48PM 31.9812 -86.7224 108° East  Level Estimated
04:49PM 31.9748 -86.6988 108° East  Level Estimated
04:50PM 31.9684 -86.6752 108° East  Level Estimated
04:51PM 31.9620 -86.6517 108° East  Level Estimated
04:52PM 31.9556 -86.6281 108° East  Level Estimated
04:53PM 31.9492 -86.6046 108° East  Level Estimated
04:54PM 31.9428 -86.5810 108° East  Level Estimated
04:55PM 31.9364 -86.5575 108° East  Level Estimated
04:56PM 31.9299 -86.5340 108° East  Level Estimated
04:57PM 31.9235 -86.5104 108° East  Level Estimated
04:58PM 31.9171 -86.4869 108° East  Level Estimated
04:59PM 31.9106 -86.4634 108° East  Level Estimated
05:00PM 31.9042 -86.4398 108° East  Level Estimated
05:01PM 31.8978 -86.4163 108° East  Level Estimated
05:02PM 31.8913 -86.3928 108° East  Level Estimated
05:03PM 31.8848 -86.3693 108° East  Level Estimated
05:04PM 31.8784 -86.3458 108° East  Level Estimated
05:05PM 31.8719 -86.3223 108° East  Level Estimated
05:06PM 31.8654 -86.2988 108° East  Level Estimated
05:07PM 31.8590 -86.2753 108° East  Level Estimated
05:08PM 31.8525 -86.2518 108° East  Level Estimated
05:09PM 31.8460 -86.2283 108° East  Level Estimated
05:10PM 31.8395 -86.2048 108° East  Level Estimated
05:11PM 31.8330 -86.1813 108° East  Level Estimated
05:12PM 31.8265 -86.1578 108° East  Level Estimated
05:13PM 31.8200 -86.1344 108° East  Level Estimated
05:14PM 31.8135 -86.1109 108° East  Level Estimated
05:15PM 31.8070 -86.0874 108° East  Level Estimated
05:16PM 31.8005 -86.0639 108° East  Level Estimated
05:17PM 31.7940 -86.0405 108° East  Level Estimated
05:18PM 31.7875 -86.0170 108° East  Level Estimated
05:19PM 31.7809 -85.9935 108° East  Level Estimated
05:20PM 31.7744 -85.9701 108° East  Level Estimated
05:21PM 31.7679 -85.9466 108° East  Level Estimated
05:22PM 31.7613 -85.9232 108° East  Level Estimated
05:23PM 31.7548 -85.8997 108° East  Level Estimated
05:24PM 31.7482 -85.8763 108° East  Level Estimated
05:25PM 31.7417 -85.8529 108° East  Level Estimated
05:26PM 31.7351 -85.8294 108° East  Level Estimated
05:27PM 31.7286 -85.8060 108° East  Level Estimated
05:28PM 31.7220 -85.7825 108° East  Level Estimated
05:29PM 31.7155 -85.7591 108° East  Level Estimated
05:30PM 31.7089 -85.7357 108° East  Level Estimated
05:31PM 31.7023 -85.7123 108° East  Level Estimated
05:32PM 31.6957 -85.6889 108° East  Level Estimated
05:33PM 31.6891 -85.6655 108° East  Level Estimated
05:34PM 31.6825 -85.6420 108° East  Level Estimated
05:35PM 31.6759 -85.6186 108° East  Level Estimated
05:36PM 31.6693 -85.5952 108° East  Level Estimated
05:37PM 31.6628 -85.5718 108° East  Level Estimated
05:38PM 31.6561 -85.5484 108° East  Level Estimated
05:39PM 31.6495 -85.5250 108° East  Level Estimated
05:40PM 31.6429 -85.5016 108° East  Level Estimated
05:41PM 31.6363 -85.4783 108° East  Level Estimated
05:42PM 31.6297 -85.4549 108° East  Level Estimated
05:43PM 31.6230 -85.4315 108° East  Level Estimated
05:44PM 31.6164 -85.4081 108° East  Level Estimated
05:45PM 31.6098 -85.3848 108° East  Level Estimated
05:46PM 31.6031 -85.3614 108° East  Level Estimated
05:47PM 31.5965 -85.3380 108° East  Level Estimated
05:48PM 31.5898 -85.3147 108° East  Level Estimated
05:49PM 31.5832 -85.2913 108° East  Level Estimated
05:50PM 31.5765 -85.2679 108° East  Level Estimated
05:51PM 31.5699 -85.2446 109° East  Level Estimated
05:52PM 31.5632 -85.2212 109° East  Level Estimated
05:53PM 31.5565 -85.1979 109° East  Level Estimated
05:54PM 31.5498 -85.1745 109° East  Level Estimated
05:55PM 31.5432 -85.1512 109° East  Level Estimated
05:56PM 31.5365 -85.1279 109° East  Level Estimated
05:57PM 31.5298 -85.1045 109° East  Level Estimated
05:58PM 31.5231 -85.0812 109° East  Level Estimated
05:59PM 31.5164 -85.0579 109° East  Level Estimated
06:00PM 31.5097 -85.0346 109° East  Level Estimated
06:01PM 31.5030 -85.0112 109° East  Level Estimated
06:02PM 31.4963 -84.9879 109° East  Level Estimated
06:03PM 31.4896 -84.9646 109° East  Level Estimated
06:04PM 31.4829 -84.9413 109° East  Level Estimated
06:05PM 31.4761 -84.9180 109° East  Level Estimated
06:06PM 31.4694 -84.8947 109° East  Level Estimated
06:07PM 31.4627 -84.8714 109° East  Level Estimated
06:08PM 31.4559 -84.8481 109° East  Level Estimated
06:09PM 31.4492 -84.8248 109° East  Level Estimated
06:10PM 31.4425 -84.8015 109° East  Level Estimated
06:11PM 31.4357 -84.7782 109° East  Level Estimated
06:12PM 31.4290 -84.7549 109° East  Level Estimated
06:13PM 31.4222 -84.7317 109° East  Level Estimated
06:14PM 31.4154 -84.7084 109° East  Level Estimated
06:15PM 31.4087 -84.6851 109° East  Level Estimated
06:16PM 31.4019 -84.6618 109° East  Level Estimated
06:17PM 31.3951 -84.6386 109° East  Level Estimated
06:18PM 31.3884 -84.6153 109° East  Level Estimated
06:19PM 31.3816 -84.5920 109° East  Level Estimated
06:20PM 31.3748 -84.5688 109° East  Level Estimated
06:21PM 31.3680 -84.5455 109° East  Level Estimated
06:22PM 31.3612 -84.5223 109° East  Level Estimated
06:23PM 31.3544 -84.4990 109° East  Level Estimated
06:24PM 31.3476 -84.4758 109° East  Level Estimated
06:25PM 31.3408 -84.4526 109° East  Level Estimated
06:26PM 31.3340 -84.4293 109° East  Level Estimated
06:27PM 31.3272 -84.4061 109° East  Level Estimated
06:28PM 31.3204 -84.3829 109° East  Level Estimated
06:29PM 31.3136 -84.3596 109° East  Level Estimated
06:30PM 31.3067 -84.3364 109° East  Level Estimated
06:31PM 31.2999 -84.3132 109° East  Level Estimated
06:32PM 31.2931 -84.2900 109° East  Level Estimated
06:33PM 31.2862 -84.2667 109° East  Level Estimated
06:34PM 31.2794 -84.2435 109° East  Level Estimated
06:35PM 31.2725 -84.2203 109° East  Level Estimated
06:36PM 31.2657 -84.1971 109° East  Level Estimated
06:37PM 31.2588 -84.1739 109° East  Level Estimated
06:38PM 31.2520 -84.1507 109° East  Level Estimated
06:39PM 31.2451 -84.1275 109° East  Level Estimated
06:40PM 31.2382 -84.1043 109° East  Level Estimated
06:41PM 31.2314 -84.0812 109° East  Level Estimated
06:42PM 31.2245 -84.0580 109° East  Level Estimated
06:43PM 31.2176 -84.0348 109° East  Level Estimated
06:44PM 31.2107 -84.0116 109° East  Level Estimated
06:45PM 31.2038 -83.9884 109° East  Level Estimated
06:46PM 31.1969 -83.9653 109° East  Level Estimated
06:47PM 31.1900 -83.9421 109° East  Level Estimated
06:48PM 31.1831 -83.9190 109° East  Level Estimated
06:49PM 31.1762 -83.8958 109° East  Level Estimated
06:50PM 31.1693 -83.8726 109° East  Level Estimated
06:51PM 31.1624 -83.8495 109° East  Level Estimated
06:52PM 31.1555 -83.8263 109° East  Level Estimated
06:53PM 31.1486 -83.8032 109° East  Level Estimated
06:54PM 31.1416 -83.7800 109° East  Level Estimated
06:55PM 31.1347 -83.7569 109° East  Level Estimated
06:56PM 31.1278 -83.7338 109° East  Level Estimated
06:57PM 31.1208 -83.7106 109° East  Level Estimated
06:58PM 31.1139 -83.6875 109° East  Level Estimated
06:59PM 31.1069 -83.6644 109° East  Level Estimated
07:00PM 31.1000 -83.6413 109° East  Level Estimated
07:01PM 31.0930 -83.6181 109° East  Level Estimated
07:02PM 31.0861 -83.5950 109° East  Level Estimated
07:03PM 31.0791 -83.5719 109° East  Level Estimated
07:04PM 31.0721 -83.5488 109° East  Level Estimated
07:05PM 31.0652 -83.5257 109° East  Level Estimated
07:06PM 31.0582 -83.5026 109° East  Level Estimated
07:07PM 31.0512 -83.4795 109° East  Level Estimated
07:08PM 31.0442 -83.4564 109° East  Level Estimated
07:09PM 31.0372 -83.4333 109° East  Level Estimated
07:10PM 31.0303 -83.4102 109° East  Level Estimated
07:11PM 31.0233 -83.3872 109° East  Level Estimated
07:12PM 31.0163 -83.3641 109° East  Level Estimated
07:13PM 31.0093 -83.3410 109° East  Level Estimated
07:14PM 31.0022 -83.3179 110° East  Level Estimated
07:15PM 30.9952 -83.2949 110° East  Level Estimated
07:16PM 30.9882 -83.2718 110° East  Level Estimated
07:17PM 30.9812 -83.2487 110° East  Level Estimated
07:18PM 30.9742 -83.2257 110° East  Level Estimated
07:19PM 30.9671 -83.2026 110° East  Level Estimated
07:20PM 30.9601 -83.1796 110° East  Level Estimated
07:21PM 30.9531 -83.1565 110° East  Level Estimated
07:22PM 30.9460 -83.1335 110° East  Level Estimated
07:23PM 30.9390 -83.1104 110° East  Level Estimated
07:24PM 30.9319 -83.0874 110° East  Level Estimated
07:25PM 30.9249 -83.0643 110° East  Level Estimated
07:26PM 30.9178 -83.0413 110° East  Level Estimated
07:27PM 30.9107 -83.0183 110° East  Level Estimated
07:28PM 30.9037 -82.9952 110° East  Level Estimated
07:29PM 30.8966 -82.9722 110° East  Level Estimated
07:30PM 30.8895 -82.9492 110° East  Level Estimated
07:31PM 30.8825 -82.9262 110° East  Level Estimated
07:32PM 30.8754 -82.9032 110° East  Level Estimated
07:33PM 30.8683 -82.8802 110° East  Level Estimated
07:34PM 30.8612 -82.8572 110° East  Level Estimated
07:35PM 30.8541 -82.8342 110° East  Level Estimated
07:36PM 30.8470 -82.8112 110° East  Level Estimated
07:37PM 30.8399 -82.7882 110° East  Level Estimated
07:38PM 30.8328 -82.7652 110° East  Level Estimated
07:39PM 30.8257 -82.7422 110° East  Level Estimated
07:40PM 30.8186 -82.7192 110° East  Level Estimated
07:41PM 30.8114 -82.6962 110° East  Level Estimated
07:42PM 30.8043 -82.6732 110° East  Level Estimated
07:43PM 30.7972 -82.6503 110° East  Level Estimated
07:44PM 30.7901 -82.6273 110° East  Level Estimated
07:45PM 30.7829 -82.6043 110° East  Level Estimated
07:46PM 30.7758 -82.5813 110° East  Level Estimated
07:47PM 30.7687 -82.5584 110° East  Level Estimated
07:48PM 30.7615 -82.5354 110° East  Level Estimated
07:49PM 30.7544 -82.5125 110° East  Level Estimated
07:50PM 30.7472 -82.4895 110° East  Level Estimated
07:51PM 30.7400 -82.4666 110° East  Level Estimated
07:52PM 30.7329 -82.4436 110° East  Level Estimated
07:53PM 30.7257 -82.4207 110° East  Level Estimated
07:54PM 30.7185 -82.3978 110° East  Level Estimated
07:55PM 30.7113 -82.3748 110° East  Level Estimated
07:56PM 30.7042 -82.3519 110° East  Level Estimated
07:57PM 30.6970 -82.3290 110° East  Level Estimated
07:58PM 30.6898 -82.3060 110° East  Level Estimated
07:59PM 30.6826 -82.2831 110° East  Level Estimated
08:00PM 30.6754 -82.2602 110° East  Level Estimated
08:01PM 30.6682 -82.2373 110° East  Level Estimated
08:02PM 30.6610 -82.2144 110° East  Level Estimated
08:03PM 30.6538 -82.1915 110° East  Level Estimated
08:04PM 30.6466 -82.1686 110° East  Level Estimated
08:05PM 30.6394 -82.1457 110° East  Level Estimated
08:06PM 30.6322 -82.1228 110° East  Level Estimated
08:07PM 30.6249 -82.0999 110° East  Level Estimated
08:08PM 30.6177 -82.0770 110° East  Level Estimated
08:09PM 30.6105 -82.0541 110° East  Level Estimated
08:10PM 30.6032 -82.0312 110° East  Level Estimated
08:11PM 30.5960 -82.0083 110° East  Level Estimated
08:12PM 30.5888 -81.9855 110° East  Level Estimated
08:13PM 30.5815 -81.9626 110° East  Level Estimated
08:14PM 30.5742 -81.9397 110° East  Level Estimated
08:15PM 30.5670 -81.9168 110° East  Level Estimated
08:16PM 30.5597 -81.8940 110° East  Level Estimated
08:17PM 30.5525 -81.8711 110° East  Level Estimated
08:18PM 30.5452 -81.8483 110° East  Level Estimated
08:19PM 30.5379 -81.8254 110° East  Level Estimated
08:20PM 30.5306 -81.8026 110° East  Level Estimated
08:21PM 30.5234 -81.7797 110° East  Level Estimated
08:22PM 30.5161 -81.7569 110° East  Level Estimated
08:23PM 30.5088 -81.7340 110° East  Level Estimated
08:24PM 30.5015 -81.7112 110° East  Level Estimated
08:25PM 30.4942 -81.6884 110° East  Level Estimated
08:26PM 30.4941 -81.6879 111° Southeast  Level Estimated
08:27PM 30.4941 -81.6879 192° South  Level Estimated
08:28PM 30.4941 -81.6879 192° South  Level Estimated
08:29PM 30.4941 -81.6879 192° South  Level Estimated
08:30PM 30.4941 -81.6879 192° South  Level Estimated
08:31PM 30.4941 -81.6879 192° South  Level Estimated
08:32PM 30.4941 -81.6879 192° South  Level Estimated
08:33PM 30.4941 -81.6879 192° South  Level Estimated
08:34PM 30.4941 -81.6879 192° South  Level Estimated
08:35PM 30.4941 -81.6879 192° South  Level Estimated
08:36PM 30.4941 -81.6879 192° South  Level Estimated
08:37PM 30.4941 -81.6879 192° South  Level Estimated
08:38PM 30.4941 -81.6879 192° South  Level Estimated
08:39PM 30.4941 -81.6879 192° South  Level Estimated
08:40PM 30.4941 -81.6879 192° South  Level Estimated
08:41PM 30.4941 -81.6879 192° South  Level Estimated